Time;durP1;ratioP1;P1;durP2;ratioP2;P2;SDS_P1;SDS_P2;PMS_P1;PMS_P2;Temp;Humidity;BMP_temperature;BMP_pressure;BME280_temperature;BME280_humidity;BME280_pressure;Samples;Min_cycle;Max_cycle;Signal;HPM_P1;HPM_P2
2022/01/11 00:00:38;;;;;;;48.00;12.83;;;3.80;45.40;;;;;;5008621;28;20468;-70
2022/01/11 00:03:06;;;;;;;59.13;16.17;;;3.80;45.60;;;;;;5008463;28;20463;-70
2022/01/11 00:05:38;;;;;;;52.27;13.60;;;3.80;45.60;;;;;;5008449;28;20510;-70
2022/01/11 00:08:08;;;;;;;55.93;15.53;;;3.80;45.80;;;;;;5008290;28;20575;-69
2022/01/11 00:10:46;;;;;;;53.87;13.27;;;3.80;45.70;;;;;;5008596;28;20495;-68
2022/01/11 00:13:13;;;;;;;50.80;13.50;;;3.80;45.60;;;;;;5008295;28;20463;-70
2022/01/11 00:15:39;;;;;;;50.60;14.27;;;3.80;45.80;;;;;;5007813;28;20486;-69
2022/01/11 00:18:07;;;;;;;53.07;13.73;;;3.90;45.90;;;;;;5007783;28;20464;-69
2022/01/11 00:20:36;;;;;;;52.63;12.57;;;3.90;45.90;;;;;;5008200;28;20474;-69
2022/01/11 00:25:45;;;;;;;51.63;15.07;;;3.90;45.90;;;;;;4974650;28;20503;-69
2022/01/11 00:28:13;;;;;;;53.63;15.50;;;3.90;45.90;;;;;;5008088;28;20459;-70
2022/01/11 00:30:42;;;;;;;56.40;15.67;;;3.90;45.80;;;;;;5008455;28;20460;-69
2022/01/11 00:33:15;;;;;;;53.37;14.73;;;3.90;45.90;;;;;;5008308;28;20460;-69
2022/01/11 00:35:43;;;;;;;54.63;13.80;;;3.90;45.80;;;;;;5008263;28;20487;-71
2022/01/11 00:38:15;;;;;;;56.10;14.90;;;3.90;45.80;;;;;;5011778;28;20521;-69
2022/01/11 00:40:45;;;;;;;55.33;14.63;;;3.90;45.80;;;;;;5012009;28;20464;-70
2022/01/11 00:43:12;;;;;;;51.30;13.77;;;3.90;46.40;;;;;;5012468;28;20463;-70
2022/01/11 00:45:39;;;;;;;64.80;14.30;;;3.90;45.80;;;;;;5011580;28;21168;-70
2022/01/11 00:48:06;;;;;;;57.10;14.67;;;3.90;45.90;;;;;;5011622;28;20464;-70
2022/01/11 00:50:36;;;;;;;51.90;14.27;;;3.90;45.90;;;;;;5011113;28;20459;-71
2022/01/11 00:53:03;;;;;;;57.57;14.83;;;3.90;45.90;;;;;;5011954;28;20434;-69
2022/01/11 00:55:30;;;;;;;52.90;14.53;;;3.90;45.90;;;;;;5011685;28;20480;-69
2022/01/11 00:57:56;;;;;;;53.73;15.47;;;3.90;45.90;;;;;;5011991;28;20459;-70
2022/01/11 01:01:19;;;;;;;56.60;15.13;;;3.90;45.90;;;;;;5011648;28;20513;-70
2022/01/11 01:03:45;;;;;;;60.13;17.60;;;3.90;46.20;;;;;;5010657;28;20455;-70
2022/01/11 01:06:14;;;;;;;50.20;13.97;;;3.90;45.90;;;;;;5011287;28;20484;-70
2022/01/11 01:08:41;;;;;;;55.70;15.20;;;3.90;46.00;;;;;;5011846;28;20451;-70
2022/01/11 01:11:07;;;;;;;50.07;13.57;;;3.90;46.70;;;;;;5010890;28;20999;-70
2022/01/11 01:13:34;;;;;;;51.93;13.70;;;3.90;46.00;;;;;;5011087;28;20460;-70
2022/01/11 01:16:01;;;;;;;55.80;15.60;;;3.90;46.00;;;;;;5011800;28;20479;-70
2022/01/11 01:19:11;;;;;;;53.87;15.40;;;3.90;46.10;;;;;;5010516;28;20455;-69
2022/01/11 01:21:39;;;;;;;55.53;14.83;;;3.90;46.30;;;;;;5010259;28;21015;-69
2022/01/11 01:24:09;;;;;;;51.40;13.20;;;3.90;46.00;;;;;;5009109;28;20456;-69
2022/01/11 01:26:36;;;;;;;56.43;17.00;;;3.90;46.10;;;;;;5011793;28;20484;-70
2022/01/11 01:29:03;;;;;;;56.20;16.90;;;3.90;46.00;;;;;;5010886;28;20452;-69
2022/01/11 01:31:30;;;;;;;52.63;14.90;;;3.90;46.10;;;;;;5011622;28;20459;-70
2022/01/11 01:33:58;;;;;;;58.20;16.30;;;3.90;46.20;;;;;;5010674;28;20471;-70
2022/01/11 01:36:26;;;;;;;54.20;14.80;;;3.90;46.10;;;;;;5010108;28;20809;-69
2022/01/11 01:38:54;;;;;;;52.60;14.53;;;3.90;46.10;;;;;;5011132;28;20487;-70
2022/01/11 01:41:22;;;;;;;54.10;15.50;;;3.90;46.20;;;;;;5011084;28;20467;-70
2022/01/11 01:43:51;;;;;;;56.30;15.33;;;3.90;46.20;;;;;;5011011;28;20463;-69
2022/01/11 01:46:17;;;;;;;56.27;15.57;;;3.90;46.20;;;;;;5010987;28;20480;-71
2022/01/11 01:48:45;;;;;;;56.27;17.00;;;3.90;46.20;;;;;;5010264;28;20457;-69
2022/01/11 01:51:13;;;;;;;56.13;16.47;;;3.90;46.20;;;;;;5010355;28;20884;-70
2022/01/11 01:53:43;;;;;;;58.30;17.50;;;3.90;46.20;;;;;;5010862;28;20493;-71
2022/01/11 01:56:11;;;;;;;57.70;17.43;;;3.90;46.30;;;;;;5011719;28;20475;-69
2022/01/11 01:58:38;;;;;;;54.10;16.47;;;3.90;46.20;;;;;;5010376;28;20464;-69
2022/01/11 02:01:06;;;;;;;51.97;14.10;;;3.90;46.30;;;;;;5010552;28;20464;-70
2022/01/11 02:03:38;;;;;;;61.23;16.80;;;3.90;46.20;;;;;;5010779;28;20885;-70
2022/01/11 02:06:06;;;;;;;53.63;15.20;;;3.90;46.20;;;;;;5009901;28;20479;-70
2022/01/11 02:08:33;;;;;;;54.30;15.70;;;3.90;46.20;;;;;;5010275;28;20818;-70
2022/01/11 02:11:00;;;;;;;57.57;15.00;;;4.00;46.20;;;;;;5009570;28;20451;-70
2022/01/11 02:13:29;;;;;;;59.40;15.90;;;4.00;46.20;;;;;;5011070;28;20467;-70
2022/01/11 02:15:57;;;;;;;57.30;16.87;;;4.00;46.30;;;;;;5010705;28;21225;-69
2022/01/11 02:18:26;;;;;;;57.33;16.07;;;4.00;46.20;;;;;;5010298;28;20460;-70
2022/01/11 02:20:58;;;;;;;54.10;16.83;;;3.90;46.10;;;;;;5010226;28;20487;-70
2022/01/11 02:23:26;;;;;;;54.40;15.23;;;3.90;46.30;;;;;;5010250;28;20471;-69
2022/01/11 02:25:53;;;;;;;58.93;16.37;;;3.90;46.50;;;;;;5009585;28;20487;-70
2022/01/11 02:28:22;;;;;;;59.97;16.33;;;3.90;46.40;;;;;;5009407;28;20464;-69
2022/01/11 02:30:50;;;;;;;53.43;15.67;;;3.90;46.50;;;;;;5009751;28;20468;-70
2022/01/11 02:33:26;;;;;;;60.27;17.60;;;3.90;46.60;;;;;;5009255;28;20462;-69
2022/01/11 02:35:54;;;;;;;59.00;16.80;;;3.90;46.70;;;;;;5009364;28;20483;-70
2022/01/11 02:38:21;;;;;;;55.20;16.47;;;3.90;46.70;;;;;;5010224;28;20463;-69
2022/01/11 02:40:48;;;;;;;56.30;14.50;;;3.90;46.70;;;;;;5009641;28;20487;-69
2022/01/11 02:43:14;;;;;;;59.73;17.40;;;3.90;46.70;;;;;;5009966;28;20466;-69
2022/01/11 02:45:41;;;;;;;58.00;15.60;;;3.90;46.70;;;;;;5009641;28;20479;-69
2022/01/11 02:48:08;;;;;;;53.80;15.47;;;3.90;46.70;;;;;;5008948;28;20460;-70
2022/01/11 02:50:35;;;;;;;65.10;16.10;;;3.90;46.70;;;;;;5009289;28;20456;-70
2022/01/11 02:53:03;;;;;;;59.10;16.57;;;3.90;46.70;;;;;;5009960;28;20464;-69
2022/01/11 02:55:33;;;;;;;61.60;17.60;;;3.90;46.60;;;;;;5009377;28;20488;-69
2022/01/11 02:57:59;;;;;;;59.00;17.57;;;3.90;46.70;;;;;;5009566;28;20522;-69
2022/01/11 03:00:26;;;;;;;54.27;16.27;;;3.90;46.70;;;;;;5008744;28;20482;-70
2022/01/11 03:02:53;;;;;;;56.73;15.60;;;3.90;46.80;;;;;;5009155;28;20470;-69
2022/01/11 03:05:20;;;;;;;58.77;17.33;;;3.90;46.70;;;;;;5008645;28;20977;-69
2022/01/11 03:07:47;;;;;;;55.10;15.67;;;3.90;46.70;;;;;;5009403;28;20937;-69
2022/01/11 03:10:25;;;;;;;59.77;17.73;;;3.90;46.60;;;;;;5008848;28;20836;-69
2022/01/11 03:12:52;;;;;;;55.10;15.87;;;3.90;46.70;;;;;;5009487;28;21217;-69
2022/01/11 03:15:19;;;;;;;59.70;18.37;;;3.90;46.60;;;;;;5009210;28;20475;-69
2022/01/11 03:17:46;;;;;;;56.00;16.00;;;3.90;46.70;;;;;;5009451;28;20464;-69
2022/01/11 03:20:13;;;;;;;54.83;16.33;;;3.90;46.60;;;;;;5009163;28;21146;-69
2022/01/11 03:22:40;;;;;;;54.50;17.00;;;3.90;46.60;;;;;;5008536;28;20460;-70
2022/01/11 03:25:08;;;;;;;60.00;18.77;;;4.00;46.50;;;;;;5008193;28;20490;-70
2022/01/11 03:27:38;;;;;;;60.10;17.17;;;4.00;46.60;;;;;;5008683;28;20884;-69
2022/01/11 03:30:06;;;;;;;53.70;16.60;;;4.00;46.50;;;;;;5008923;28;20555;-69
2022/01/11 03:32:33;;;;;;;58.30;16.23;;;3.90;46.60;;;;;;5008898;28;20482;-70
2022/01/11 03:35:00;;;;;;;55.63;16.27;;;4.00;46.70;;;;;;5008518;28;20482;-69
2022/01/11 03:37:26;;;;;;;57.60;16.53;;;3.90;46.60;;;;;;5008941;28;20467;-70
2022/01/11 03:39:53;;;;;;;55.63;15.90;;;3.90;46.70;;;;;;5008952;28;20489;-70
2022/01/11 03:42:20;;;;;;;64.70;18.23;;;4.00;46.70;;;;;;5008609;28;20471;-70
2022/01/11 03:44:49;;;;;;;52.30;16.53;;;4.00;46.70;;;;;;5008646;28;21125;-70
2022/01/11 03:47:16;;;;;;;55.20;16.17;;;3.90;46.70;;;;;;5008420;28;20455;-69
2022/01/11 03:49:43;;;;;;;55.90;15.00;;;3.90;46.70;;;;;;5008730;28;20464;-69
2022/01/11 03:52:09;;;;;;;55.70;16.23;;;3.90;46.70;;;;;;5008863;28;20483;-70
2022/01/11 03:54:51;;;;;;;59.60;16.60;;;3.90;46.70;;;;;;5008618;28;20996;-69
2022/01/11 03:57:18;;;;;;;57.40;17.10;;;3.90;46.60;;;;;;5009200;28;20533;-71
2022/01/11 03:59:44;;;;;;;56.60;16.73;;;3.90;46.70;;;;;;5008789;28;20515;-69
2022/01/11 04:02:12;;;;;;;62.30;16.70;;;3.90;46.70;;;;;;5008906;28;20467;-69
2022/01/11 04:04:39;;;;;;;54.63;17.10;;;3.90;46.70;;;;;;5008451;28;20466;-69
2022/01/11 04:07:06;;;;;;;57.00;16.67;;;3.90;46.80;;;;;;5008882;28;20467;-69
2022/01/11 04:09:33;;;;;;;60.27;18.13;;;3.90;46.80;;;;;;5008278;28;20465;-70
2022/01/11 04:12:00;;;;;;;58.20;15.97;;;3.90;46.90;;;;;;5011989;28;20972;-69
2022/01/11 04:14:27;;;;;;;56.83;17.23;;;3.90;46.90;;;;;;5012528;28;20467;-70
2022/01/11 04:16:54;;;;;;;70.20;19.03;;;3.90;46.90;;;;;;5012469;28;20475;-70
2022/01/11 04:19:24;;;;;;;56.87;17.03;;;3.90;46.90;;;;;;5012537;28;20464;-69
2022/01/11 04:21:52;;;;;;;56.30;17.23;;;3.90;46.90;;;;;;5012001;28;20471;-70
2022/01/11 04:24:19;;;;;;;66.83;18.73;;;3.90;46.90;;;;;;5012107;28;20535;-69
2022/01/11 04:26:45;;;;;;;60.30;18.30;;;3.90;46.90;;;;;;5012335;28;20479;-69
2022/01/11 04:29:12;;;;;;;57.97;17.03;;;3.90;46.80;;;;;;5012044;28;20460;-69
2022/01/11 04:31:40;;;;;;;66.67;17.40;;;3.90;46.90;;;;;;5011330;28;20483;-70
2022/01/11 04:34:07;;;;;;;67.43;18.67;;;3.90;46.90;;;;;;5012056;28;20462;-69
2022/01/11 04:36:36;;;;;;;58.73;17.53;;;3.90;46.90;;;;;;5011893;28;20475;-69
2022/01/11 04:39:05;;;;;;;62.00;18.13;;;3.90;46.90;;;;;;5012446;28;20462;-69
2022/01/11 04:41:31;;;;;;;61.73;18.47;;;3.90;46.90;;;;;;5011277;28;20495;-69
2022/01/11 04:43:58;;;;;;;63.67;18.90;;;3.90;47.00;;;;;;5011050;28;20466;-69
2022/01/11 04:46:26;;;;;;;55.50;16.97;;;3.90;46.90;;;;;;5011731;28;20476;-69
2022/01/11 04:48:54;;;;;;;62.10;18.17;;;3.90;46.90;;;;;;5011355;28;20551;-69
2022/01/11 04:51:21;;;;;;;60.17;19.20;;;3.90;47.20;;;;;;5010203;28;20446;-69
2022/01/11 04:53:50;;;;;;;59.53;18.23;;;3.90;47.00;;;;;;5011708;28;20823;-69
2022/01/11 04:56:17;;;;;;;61.60;19.20;;;3.90;47.10;;;;;;5002684;28;20522;-69
2022/01/11 04:58:43;;;;;;;58.10;17.87;;;3.90;47.10;;;;;;5011622;28;20935;-69
2022/01/11 05:01:10;;;;;;;63.80;19.70;;;3.90;47.00;;;;;;5010039;28;20475;-68
2022/01/11 05:03:37;;;;;;;58.10;18.70;;;3.90;47.00;;;;;;5011623;28;20466;-69
2022/01/11 05:06:05;;;;;;;61.63;18.90;;;3.90;47.10;;;;;;5004198;28;20503;-69
2022/01/11 05:08:34;;;;;;;56.90;17.60;;;3.90;47.10;;;;;;5006094;28;20487;-69
2022/01/11 05:11:03;;;;;;;61.77;19.97;;;3.90;47.20;;;;;;5009330;28;20542;-69
2022/01/11 05:13:31;;;;;;;58.30;17.80;;;3.90;47.10;;;;;;5016680;28;20977;-69
2022/01/11 05:15:59;;;;;;;57.40;17.60;;;3.90;47.10;;;;;;5019157;28;20545;-69
2022/01/11 05:18:25;;;;;;;75.83;18.20;;;3.90;47.10;;;;;;5011443;28;21018;-69
2022/01/11 05:20:52;;;;;;;68.30;19.23;;;3.90;47.30;;;;;;5009770;28;20539;-70
2022/01/11 05:23:19;;;;;;;63.27;18.70;;;3.90;47.40;;;;;;5009773;28;20467;-69
2022/01/11 05:25:46;;;;;;;60.83;18.97;;;3.90;47.30;;;;;;5008353;28;20522;-69
2022/01/11 05:28:14;;;;;;;63.00;18.73;;;3.90;47.30;;;;;;5011392;28;20460;-69
2022/01/11 05:30:41;;;;;;;57.57;18.70;;;3.90;47.30;;;;;;5010997;28;20804;-69
2022/01/11 05:33:08;;;;;;;53.40;17.33;;;3.90;47.80;;;;;;5011457;28;20666;-69
2022/01/11 05:35:34;;;;;;;60.97;19.30;;;3.90;47.20;;;;;;5009626;28;20480;-69
2022/01/11 05:38:01;;;;;;;59.00;18.37;;;3.90;47.10;;;;;;5010879;28;20962;-69
2022/01/11 05:40:28;;;;;;;57.97;18.10;;;3.90;47.20;;;;;;5010190;28;21019;-69
2022/01/11 05:42:54;;;;;;;59.40;18.93;;;3.90;47.20;;;;;;5010947;28;20467;-69
2022/01/11 05:45:23;;;;;;;59.77;19.60;;;3.90;47.20;;;;;;5011406;28;20487;-69
2022/01/11 05:47:52;;;;;;;58.27;18.73;;;3.90;47.50;;;;;;5009518;28;20463;-69
2022/01/11 05:50:20;;;;;;;71.53;20.10;;;3.90;47.10;;;;;;5010233;28;20456;-69
2022/01/11 05:52:48;;;;;;;59.27;18.13;;;3.80;47.10;;;;;;5010821;28;20460;-69
2022/01/11 05:55:15;;;;;;;69.33;21.50;;;3.80;47.10;;;;;;5010718;28;20511;-69
2022/01/11 05:57:43;;;;;;;58.13;18.30;;;3.80;47.20;;;;;;5009862;28;20931;-69
2022/01/11 06:00:13;;;;;;;67.80;24.10;;;3.80;47.30;;;;;;5010399;28;20463;-69
2022/01/11 06:02:44;;;;;;;72.73;26.43;;;3.80;47.40;;;;;;5010209;28;21017;-69
2022/01/11 06:05:11;;;;;;;66.10;24.77;;;3.80;47.20;;;;;;5010519;28;20502;-69
2022/01/11 06:07:39;;;;;;;63.80;20.27;;;3.80;47.20;;;;;;5008995;28;20611;-69
2022/01/11 06:10:07;;;;;;;57.50;17.40;;;3.80;47.20;;;;;;5010037;28;20888;-69
2022/01/11 06:12:34;;;;;;;59.77;18.90;;;3.80;47.20;;;;;;5009829;28;20463;-69
2022/01/11 06:15:00;;;;;;;60.37;18.00;;;3.70;47.30;;;;;;5009745;28;20487;-68
2022/01/11 06:17:27;;;;;;;60.20;18.27;;;3.80;47.30;;;;;;5009259;28;20991;-69
2022/01/11 06:19:55;;;;;;;55.47;17.37;;;3.70;47.30;;;;;;5010252;28;20475;-69
2022/01/11 06:22:24;;;;;;;56.47;17.10;;;3.70;47.40;;;;;;5010137;28;20480;-69
2022/01/11 06:24:51;;;;;;;58.80;17.87;;;3.80;47.40;;;;;;5009710;28;20595;-70
2022/01/11 06:27:18;;;;;;;63.07;19.90;;;3.70;47.20;;;;;;5010167;28;20460;-69
2022/01/11 06:29:44;;;;;;;59.13;18.30;;;3.70;47.40;;;;;;5008696;28;20961;-69
2022/01/11 06:32:11;;;;;;;69.60;21.73;;;3.70;47.40;;;;;;5010084;28;20460;-69
2022/01/11 06:34:39;;;;;;;60.97;18.60;;;3.70;47.40;;;;;;5022836;23;20500;-64
2022/01/11 06:37:07;;;;;;;65.57;18.40;;;3.70;47.40;;;;;;5008075;28;20548;-63
2022/01/11 06:39:36;;;;;;;63.47;19.93;;;3.70;47.40;;;;;;5005845;28;20844;-63
2022/01/11 06:42:04;;;;;;;55.37;18.33;;;3.70;47.40;;;;;;5000830;28;20990;-65
2022/01/11 06:44:30;;;;;;;63.20;18.60;;;3.60;47.40;;;;;;5009397;28;21034;-62
2022/01/11 06:46:57;;;;;;;64.07;19.53;;;3.70;47.50;;;;;;5005356;28;20567;-63
2022/01/11 06:49:24;;;;;;;59.73;18.40;;;3.70;47.60;;;;;;5008159;28;20495;-64
2022/01/11 06:51:51;;;;;;;61.37;18.87;;;3.70;47.60;;;;;;5000384;28;20491;-63
2022/01/11 06:54:19;;;;;;;63.87;19.20;;;3.70;47.60;;;;;;5008562;28;20466;-63
2022/01/11 06:56:46;;;;;;;56.37;17.60;;;3.60;47.50;;;;;;4993378;28;20474;-63
2022/01/11 06:59:13;;;;;;;64.27;23.30;;;3.60;47.50;;;;;;5001044;28;20534;-61
2022/01/11 07:01:40;;;;;;;59.13;19.40;;;3.60;47.50;;;;;;5004369;28;20491;-62
2022/01/11 07:04:06;;;;;;;58.23;18.90;;;3.60;47.50;;;;;;5007740;28;20547;-63
2022/01/11 07:06:33;;;;;;;61.90;18.67;;;3.60;47.50;;;;;;5007636;28;20463;-62
2022/01/11 07:09:00;;;;;;;59.63;20.03;;;3.60;47.50;;;;;;5009996;28;20464;-63
2022/01/11 07:11:28;;;;;;;62.80;19.43;;;3.60;47.50;;;;;;5000989;28;20468;-63
2022/01/11 07:13:55;;;;;;;61.77;20.70;;;3.60;47.50;;;;;;5005001;28;20479;-63
2022/01/11 07:16:21;;;;;;;57.93;17.70;;;3.60;47.50;;;;;;5010258;28;20818;-63
2022/01/11 07:18:49;;;;;;;63.23;20.27;;;3.60;47.50;;;;;;5009103;28;21005;-62
2022/01/11 07:21:16;;;;;;;63.13;20.23;;;3.60;47.40;;;;;;5000743;28;20480;-62
2022/01/11 07:23:43;;;;;;;63.97;20.23;;;3.60;47.50;;;;;;5030872;22;20917;-66
2022/01/11 07:26:09;;;;;;;58.40;18.00;;;3.60;47.50;;;;;;5009536;28;20463;-64
2022/01/11 07:28:37;;;;;;;67.97;18.77;;;3.60;47.50;;;;;;5009926;28;20459;-62
2022/01/11 07:31:04;;;;;;;67.40;20.47;;;3.60;47.60;;;;;;5008362;28;20456;-66
2022/01/11 07:33:31;;;;;;;59.90;18.70;;;3.60;47.50;;;;;;5009891;28;20472;-64
2022/01/11 07:35:59;;;;;;;60.87;20.13;;;3.60;47.50;;;;;;5008166;28;20456;-65
2022/01/11 07:38:25;;;;;;;63.67;19.33;;;3.60;47.50;;;;;;5000952;28;20474;-64
2022/01/11 07:40:52;;;;;;;62.80;19.37;;;3.60;47.50;;;;;;5007165;28;21228;-63
2022/01/11 07:43:19;;;;;;;61.10;18.57;;;3.60;47.50;;;;;;5005440;28;20483;-63
2022/01/11 07:45:47;;;;;;;67.83;18.23;;;3.70;47.60;;;;;;5009928;28;20456;-64
2022/01/11 07:48:14;;;;;;;60.03;19.03;;;3.70;47.50;;;;;;5008665;28;20550;-65
2022/01/11 07:50:41;;;;;;;63.10;20.50;;;3.70;47.40;;;;;;5003795;28;20455;-65
2022/01/11 07:53:07;;;;;;;58.13;18.07;;;3.80;47.40;;;;;;5004512;28;20514;-63
2022/01/11 07:55:35;;;;;;;59.23;17.83;;;3.90;47.40;;;;;;5010112;28;20452;-67
2022/01/11 07:58:02;;;;;;;56.80;18.40;;;3.90;47.40;;;;;;5008110;28;20498;-63
2022/01/11 08:00:28;;;;;;;56.90;17.57;;;3.90;47.20;;;;;;4996640;28;20474;-67
2022/01/11 08:02:56;;;;;;;59.83;18.20;;;4.00;47.20;;;;;;5008442;28;20510;-65
2022/01/11 08:05:23;;;;;;;62.13;19.23;;;4.10;47.20;;;;;;5010055;28;20464;-64
2022/01/11 08:07:50;;;;;;;53.93;17.13;;;4.20;47.00;;;;;;5009756;28;20471;-64
2022/01/11 08:10:18;;;;;;;57.83;19.53;;;4.20;46.80;;;;;;5008678;28;20455;-65
2022/01/11 08:12:45;;;;;;;57.93;16.80;;;4.40;46.60;;;;;;5008421;28;20522;-64
2022/01/11 08:15:13;;;;;;;57.63;18.30;;;4.50;46.50;;;;;;5009544;28;20456;-65
2022/01/11 08:17:40;;;;;;;66.17;18.97;;;4.50;46.20;;;;;;5009526;28;20461;-66
2022/01/11 08:20:09;;;;;;;57.70;17.53;;;4.60;45.90;;;;;;5004387;28;20849;-65
2022/01/11 08:22:36;;;;;;;56.30;17.70;;;4.70;45.80;;;;;;5005037;28;21557;-65
2022/01/11 08:25:03;;;;;;;59.93;18.63;;;4.70;45.70;;;;;;5013243;28;20677;-67
2022/01/11 08:27:30;;;;;;;56.10;17.43;;;4.90;45.70;;;;;;5008125;28;20474;-65
2022/01/11 08:29:57;;;;;;;53.93;16.27;;;5.00;45.30;;;;;;5002112;28;20479;-65
2022/01/11 08:32:24;;;;;;;54.90;16.97;;;5.20;45.00;;;;;;5000393;28;20452;-65
2022/01/11 08:34:50;;;;;;;56.10;17.30;;;5.30;44.60;;;;;;5007405;28;20511;-66
2022/01/11 08:37:19;;;;;;;58.20;17.30;;;5.40;44.10;;;;;;5009722;28;20514;-66
2022/01/11 08:39:46;;;;;;;54.63;17.17;;;5.50;43.90;;;;;;5015314;28;20463;-64
2022/01/11 08:42:13;;;;;;;54.27;16.63;;;5.60;44.10;;;;;;5008312;28;20487;-66
2022/01/11 08:44:40;;;;;;;51.60;16.00;;;5.70;43.10;;;;;;5007344;28;20836;-66
2022/01/11 08:47:07;;;;;;;55.03;16.10;;;5.70;42.90;;;;;;5009272;28;20464;-66
2022/01/11 08:49:34;;;;;;;54.87;17.10;;;5.80;42.60;;;;;;5022413;28;20458;-67
2022/01/11 08:52:01;;;;;;;52.57;15.27;;;5.80;42.30;;;;;;5012049;28;20464;-66
2022/01/11 08:54:29;;;;;;;49.70;14.80;;;5.90;41.90;;;;;;5007113;28;20496;-67
2022/01/11 08:56:56;;;;;;;50.80;14.53;;;5.90;41.70;;;;;;5009110;28;20455;-67
2022/01/11 08:59:25;;;;;;;51.10;15.20;;;6.00;41.70;;;;;;5011210;28;20464;-67
2022/01/11 09:01:53;;;;;;;53.30;15.37;;;6.10;41.30;;;;;;5012677;28;20518;-65
2022/01/11 09:04:22;;;;;;;48.93;13.90;;;6.20;41.10;;;;;;5010891;28;21013;-66
2022/01/11 09:06:49;;;;;;;52.33;14.63;;;6.30;41.00;;;;;;5013662;28;20495;-65
2022/01/11 09:09:16;;;;;;;57.87;14.63;;;6.40;40.90;;;;;;5013963;28;20459;-64
2022/01/11 09:11:45;;;;;;;49.80;14.73;;;6.50;40.70;;;;;;5006678;28;20510;-66
2022/01/11 09:14:12;;;;;;;49.60;14.63;;;6.60;40.40;;;;;;5012432;28;20476;-66
2022/01/11 09:16:39;;;;;;;53.63;16.00;;;6.70;39.70;;;;;;5010230;28;20546;-64
2022/01/11 09:19:06;;;;;;;49.37;14.03;;;6.80;39.50;;;;;;5012259;28;20467;-66
2022/01/11 09:21:33;;;;;;;46.40;13.33;;;6.90;39.30;;;;;;5012428;28;20571;-66
2022/01/11 09:24:00;;;;;;;53.07;16.50;;;6.90;39.40;;;;;;5012477;28;20498;-66
2022/01/11 09:26:27;;;;;;;50.87;15.23;;;6.90;38.50;;;;;;5010401;28;20487;-66
2022/01/11 09:28:55;;;;;;;47.17;13.27;;;7.00;38.60;;;;;;5007904;28;20494;-66
2022/01/11 09:31:21;;;;;;;50.80;13.30;;;7.00;38.00;;;;;;5010568;28;20471;-66
2022/01/11 09:33:50;;;;;;;49.47;16.13;;;6.90;38.00;;;;;;5010814;28;21170;-64
2022/01/11 09:36:17;;;;;;;48.43;13.37;;;6.90;37.90;;;;;;5011660;28;20459;-65
2022/01/11 09:38:44;;;;;;;48.27;14.03;;;6.90;37.40;;;;;;5011960;28;20455;-62
2022/01/11 09:41:11;;;;;;;44.63;11.47;;;6.90;37.30;;;;;;5011675;28;20452;-65
2022/01/11 09:43:38;;;;;;;45.57;12.43;;;7.00;37.50;;;;;;5010683;28;20487;-66
2022/01/11 09:46:07;;;;;;;48.70;14.10;;;7.00;36.40;;;;;;5010288;28;20479;-66
2022/01/11 09:48:34;;;;;;;47.63;12.40;;;7.00;36.70;;;;;;5011480;28;20957;-65
2022/01/11 09:51:01;;;;;;;44.00;10.87;;;7.00;36.70;;;;;;5011824;28;20455;-66
2022/01/11 09:53:28;;;;;;;44.50;11.30;;;7.00;36.50;;;;;;5012303;28;20480;-66
2022/01/11 09:55:55;;;;;;;41.87;10.93;;;6.90;36.30;;;;;;5007881;28;20460;-72
2022/01/11 09:58:22;;;;;;;45.10;11.27;;;6.90;35.50;;;;;;5009113;28;20486;-68
2022/01/11 10:00:50;;;;;;;46.80;11.53;;;6.90;35.10;;;;;;5009892;28;20637;-66
2022/01/11 10:03:18;;;;;;;45.40;12.00;;;6.80;35.60;;;;;;5008759;28;20577;-66
2022/01/11 10:05:45;;;;;;;43.97;10.90;;;6.80;36.10;;;;;;5011526;28;20460;-64
2022/01/11 10:08:25;;;;;;;43.97;11.40;;;6.90;36.40;;;;;;5009927;28;20475;-64
2022/01/11 10:10:53;;;;;;;47.00;10.30;;;7.00;36.40;;;;;;5009850;28;20506;-65
2022/01/11 10:13:32;;;;;;;46.20;10.90;;;7.10;36.40;;;;;;5010099;28;20518;-66
2022/01/11 10:16:17;;;;;;;43.60;10.67;;;7.30;35.80;;;;;;5011244;28;20478;-66
2022/01/11 10:18:45;;;;;;;44.00;10.10;;;7.40;34.90;;;;;;5008717;28;20837;-66
2022/01/11 10:21:31;;;;;;;40.80;9.53;;;7.60;35.40;;;;;;5009676;28;20460;-64
2022/01/11 10:23:57;;;;;;;42.70;9.13;;;7.80;34.70;;;;;;5010234;28;20491;-66
2022/01/11 10:26:42;;;;;;;41.10;9.63;;;8.20;33.10;;;;;;5003302;28;20456;-66
2022/01/11 10:29:33;;;;;;;40.63;8.30;;;8.90;31.40;;;;;;5009270;28;20499;-66
2022/01/11 10:32:10;;;;;;;41.63;9.93;;;10.10;29.80;;;;;;5003094;28;20518;-68
2022/01/11 10:34:39;;;;;;;40.80;9.23;;;12.00;26.20;;;;;;5008233;28;20495;-65
2022/01/11 10:37:06;;;;;;;39.67;9.13;;;14.10;20.90;;;;;;5011334;28;20520;-66
2022/01/11 10:39:38;;;;;;;36.47;7.80;;;16.30;16.90;;;;;;5009751;28;20883;-65
2022/01/11 10:42:06;;;;;;;38.80;8.50;;;17.00;13.60;;;;;;5008823;28;20851;-65
2022/01/11 10:44:51;;;;;;;36.60;8.30;;;17.00;12.50;;;;;;5003886;28;21783;-65
2022/01/11 10:47:22;;;;;;;34.23;7.47;;;17.00;11.20;;;;;;5009186;28;20463;-65
2022/01/11 10:49:55;;;;;;;35.80;7.60;;;17.40;10.90;;;;;;5004852;28;20464;-66
2022/01/11 10:52:23;;;;;;;34.50;7.47;;;17.50;10.10;;;;;;5009409;28;21009;-66
2022/01/11 10:54:51;;;;;;;34.20;7.60;;;17.80;8.80;;;;;;5007550;28;20488;-68
2022/01/11 10:57:22;;;;;;;33.13;7.17;;;17.90;9.70;;;;;;5008509;28;21016;-66
2022/01/11 11:00:29;;;;;;;35.70;6.50;;;19.10;8.20;;;;;;5009481;28;20463;-66
2022/01/11 11:03:00;;;;;;;33.03;6.30;;;18.00;7.20;;;;;;4983217;28;21005;-66
2022/01/11 11:05:32;;;;;;;34.70;6.50;;;16.60;8.10;;;;;;4998543;28;20892;-66
2022/01/11 11:08:12;;;;;;;32.97;6.10;;;15.40;9.00;;;;;;5006563;28;21029;-66
2022/01/11 11:10:48;;;;;;;35.27;6.60;;;14.30;10.00;;;;;;5005001;28;20464;-64
2022/01/11 11:13:21;;;;;;;34.50;7.40;;;13.30;11.90;;;;;;5007791;28;20478;-65
2022/01/11 11:15:49;;;;;;;35.23;6.87;;;12.60;12.90;;;;;;5008713;28;20467;-65
2022/01/11 11:18:29;;;;;;;35.57;6.13;;;12.00;13.70;;;;;;5006731;28;21035;-65
2022/01/11 11:20:58;;;;;;;34.97;7.17;;;11.40;14.80;;;;;;5007981;28;20980;-64
2022/01/11 11:23:24;;;;;;;33.40;5.50;;;10.90;15.20;;;;;;5008905;28;20484;-67
2022/01/11 11:25:51;;;;;;;33.50;4.80;;;10.40;15.70;;;;;;5009680;28;20475;-67
2022/01/11 11:28:21;;;;;;;33.90;5.63;;;10.10;16.70;;;;;;5008211;28;20511;-65
2022/01/11 11:30:50;;;;;;;35.50;5.40;;;9.80;16.30;;;;;;5007135;28;20467;-66
2022/01/11 11:33:18;;;;;;;36.00;6.10;;;9.50;16.40;;;;;;5007635;28;20479;-65
2022/01/11 11:35:45;;;;;;;35.63;5.87;;;9.20;17.00;;;;;;5005621;28;21037;-66
2022/01/11 11:38:14;;;;;;;35.60;5.80;;;8.90;17.40;;;;;;5004497;28;20467;-63
2022/01/11 11:40:42;;;;;;;37.30;7.30;;;8.60;18.10;;;;;;4999948;28;20452;-65
2022/01/11 11:43:12;;;;;;;36.73;7.30;;;8.30;19.40;;;;;;5006962;28;20487;-66
2022/01/11 11:45:41;;;;;;;37.10;6.77;;;8.00;19.80;;;;;;5001553;28;20519;-66
2022/01/11 11:48:10;;;;;;;36.60;6.50;;;7.80;20.40;;;;;;5004773;28;20514;-64
2022/01/11 11:50:48;;;;;;;36.60;6.23;;;7.70;21.80;;;;;;5008342;28;20467;-65
2022/01/11 11:53:23;;;;;;;36.00;5.67;;;7.50;22.30;;;;;;5005803;28;20503;-64
2022/01/11 11:55:50;;;;;;;35.80;4.40;;;7.50;21.60;;;;;;5003964;28;20455;-67
2022/01/11 11:58:20;;;;;;;34.73;4.47;;;7.40;21.40;;;;;;5006378;28;21049;-68
2022/01/11 12:00:47;;;;;;;37.20;5.30;;;7.40;20.90;;;;;;5003176;28;20476;-64
2022/01/11 12:03:22;;;;;;;36.13;4.70;;;7.30;21.00;;;;;;5001988;28;20492;-64
2022/01/11 12:05:49;;;;;;;36.03;5.30;;;7.30;20.70;;;;;;5002899;28;20474;-66
2022/01/11 12:08:33;;;;;;;34.90;4.37;;;7.30;21.00;;;;;;5005973;28;20957;-67
2022/01/11 12:11:03;;;;;;;38.60;5.57;;;7.30;20.70;;;;;;5007092;28;20460;-66
2022/01/11 12:13:46;;;;;;;36.23;5.00;;;7.20;21.30;;;;;;5005831;28;20903;-66
2022/01/11 12:16:38;;;;;;;34.87;4.63;;;7.20;21.40;;;;;;5002308;28;20479;-64
2022/01/11 12:19:07;;;;;;;35.20;5.13;;;7.20;22.00;;;;;;5006081;28;20526;-63
2022/01/11 12:21:42;;;;;;;35.10;4.87;;;7.10;21.80;;;;;;5007008;28;20491;-65
2022/01/11 12:24:11;;;;;;;35.47;4.47;;;7.00;22.00;;;;;;5008617;28;20486;-66
2022/01/11 12:26:38;;;;;;;35.83;5.40;;;7.00;21.80;;;;;;5007047;28;20483;-65
2022/01/11 12:29:25;;;;;;;35.33;6.00;;;6.90;21.90;;;;;;5006568;28;20494;-64
2022/01/11 12:31:58;;;;;;;35.70;5.47;;;6.90;22.10;;;;;;5008005;28;20467;-67
2022/01/11 12:34:54;;;;;;;36.00;5.83;;;6.80;22.90;;;;;;5010325;28;20454;-64
2022/01/11 12:37:24;;;;;;;34.90;5.20;;;6.70;23.30;;;;;;5010307;28;20471;-66
2022/01/11 12:40:24;;;;;;;35.73;5.53;;;6.70;23.10;;;;;;5011430;28;20472;-65
2022/01/11 12:43:01;;;;;;;35.80;5.30;;;6.60;24.10;;;;;;5000290;28;20491;-65
2022/01/11 12:46:00;;;;;;;35.57;5.20;;;6.50;23.10;;;;;;5011897;28;20468;-65
2022/01/11 12:49:09;;;;;;;35.43;5.13;;;6.40;23.20;;;;;;5010903;28;21027;-64
2022/01/11 12:51:49;;;;;;;36.83;5.70;;;6.30;23.20;;;;;;5007726;28;20885;-65